Time;durP1;ratioP1;P1;durP2;ratioP2;P2;SDS_P1;SDS_P2;PMS_P1;PMS_P2;Temp;Humidity;BMP_temperature;BMP_pressure;BME280_temperature;BME280_humidity;BME280_pressure;Samples;Min_cycle;Max_cycle;Signal;HPM_P1;HPM_P2
2023/04/06 00:01:10;;;;;;;;;;;16.20;37.10;;;;;;5091170;28;20338;-77
2023/04/06 00:03:36;;;;;;;;;;;16.20;37.90;;;;;;5090674;28;19967;-76
2023/04/06 00:06:01;;;;;;;;;;;16.10;37.00;;;;;;5091602;28;19920;-76
2023/04/06 00:08:27;;;;;;;;;;;16.10;37.10;;;;;;5090860;28;19920;-77
2023/04/06 00:10:53;;;;;;;;;;;16.10;37.10;;;;;;5090997;28;19920;-76
2023/04/06 00:13:18;;;;;;;;;;;16.10;37.10;;;;;;5090849;28;19920;-77
2023/04/06 00:15:44;;;;;;;;;;;16.10;37.10;;;;;;5091325;28;20322;-77
2023/04/06 00:18:09;;;;;;;;;;;16.10;37.10;;;;;;5091213;28;19927;-76
2023/04/06 00:20:35;;;;;;;;;;;16.10;37.10;;;;;;5090966;28;19939;-77
2023/04/06 00:23:00;;;;;;;;;;;16.10;37.10;;;;;;5090553;28;19924;-76
2023/04/06 00:25:26;;;;;;;;;;;16.10;37.10;;;;;;5091721;28;19920;-76
2023/04/06 00:27:51;;;;;;;;;;;16.10;37.10;;;;;;5090666;28;19922;-76
2023/04/06 00:30:17;;;;;;;;;;;16.00;37.10;;;;;;5090910;28;20430;-76
2023/04/06 00:32:43;;;;;;;;;;;16.00;37.20;;;;;;5091917;28;20290;-76
2023/04/06 00:35:08;;;;;;;;;;;16.00;37.10;;;;;;5090607;28;19928;-75
2023/04/06 00:37:34;;;;;;;;;;;16.00;37.10;;;;;;5091067;28;19920;-77
2023/04/06 00:39:59;;;;;;;;;;;16.00;37.10;;;;;;5092430;28;19924;-76
2023/04/06 00:42:25;;;;;;;;;;;16.40;37.20;;;;;;5090843;28;19931;-75
2023/04/06 00:44:52;;;;;;;;;;;16.80;36.70;;;;;;5091291;28;20260;-76
2023/04/06 00:47:17;;;;;;;;;;;17.40;35.80;;;;;;5090423;28;19981;-76
2023/04/06 00:49:43;;;;;;;;;;;17.90;35.30;;;;;;5090334;28;20410;-75
2023/04/06 00:52:09;;;;;;;;;;;18.60;34.10;;;;;;5090510;28;20303;-75
2023/04/06 00:54:34;;;;;;;;;;;19.30;33.30;;;;;;5091150;28;20398;-75
2023/04/06 00:57:00;;;;;;;;;;;20.00;32.20;;;;;;5090270;28;19924;-75
2023/04/06 00:59:26;;;;;;;;;;;20.70;31.40;;;;;;5091756;28;19924;-76
2023/04/06 01:01:51;;;;;;;;;;;21.30;30.80;;;;;;5090581;28;19927;-76
2023/04/06 01:04:17;;;;;;;;;;;21.70;30.00;;;;;;5091042;28;19919;-76
2023/04/06 01:06:42;;;;;;;;;;;22.10;29.70;;;;;;5090773;28;20284;-76
2023/04/06 01:09:08;;;;;;;;;;;22.40;29.30;;;;;;5091107;28;20391;-76
2023/04/06 01:11:35;;;;;;;;;;;22.70;29.00;;;;;;5090753;28;19924;-76
2023/04/06 01:14:00;;;;;;;;;;;23.00;28.70;;;;;;5091069;28;19920;-76
2023/04/06 01:16:26;;;;;;;;;;;23.10;28.30;;;;;;5090749;28;20279;-76
2023/04/06 01:18:51;;;;;;;;;;;23.40;28.20;;;;;;5090744;28;19929;-76
2023/04/06 01:21:17;;;;;;;;;;;23.50;28.20;;;;;;5090714;28;20344;-76
2023/04/06 01:23:44;;;;;;;;;;;23.70;28.00;;;;;;5093962;28;19931;-76
2023/04/06 01:26:09;;;;;;;;;;;23.80;27.90;;;;;;5094377;28;19927;-76
2023/04/06 01:28:37;;;;;;;;;;;23.90;27.80;;;;;;5094452;28;19924;-76
2023/04/06 01:31:02;;;;;;;;;;;23.90;27.60;;;;;;5094697;28;20283;-76
2023/04/06 01:33:28;;;;;;;;;;;24.00;27.60;;;;;;5094849;28;19927;-76
2023/04/06 01:35:53;;;;;;;;;;;24.10;27.60;;;;;;5093246;28;19932;-76
2023/04/06 01:38:19;;;;;;;;;;;24.10;27.50;;;;;;5093786;28;19936;-77
2023/04/06 01:40:44;;;;;;;;;;;24.10;27.50;;;;;;5094425;28;20407;-76
2023/04/06 01:43:10;;;;;;;;;;;24.10;27.50;;;;;;5093223;28;19932;-76
2023/04/06 01:45:35;;;;;;;;;;;24.10;27.40;;;;;;5093906;28;19924;-76
2023/04/06 01:48:01;;;;;;;;;;;24.10;27.30;;;;;;5094011;28;19946;-75
2023/04/06 01:50:26;;;;;;;;;;;24.10;27.30;;;;;;5094266;28;19920;-76
2023/04/06 01:52:52;;;;;;;;;;;24.10;27.40;;;;;;5093946;28;19920;-76
2023/04/06 01:55:17;;;;;;;;;;;24.00;27.40;;;;;;5093205;28;19981;-76
2023/04/06 01:57:43;;;;;;;;;;;24.00;27.50;;;;;;5094841;28;19959;-76
2023/04/06 02:00:09;;;;;;;;;;;23.90;27.40;;;;;;5093490;28;20383;-76
2023/04/06 02:02:35;;;;;;;;;;;23.90;27.40;;;;;;5094022;28;19946;-76
2023/04/06 02:05:00;;;;;;;;;;;23.80;27.50;;;;;;5093907;28;20307;-76
2023/04/06 02:07:26;;;;;;;;;;;23.70;27.50;;;;;;5093753;28;20445;-76
2023/04/06 02:09:53;;;;;;;;;;;23.70;27.50;;;;;;5093573;28;19927;-76
2023/04/06 02:12:19;;;;;;;;;;;23.70;27.70;;;;;;5093648;28;19924;-76
2023/04/06 02:14:44;;;;;;;;;;;23.60;27.70;;;;;;5092647;28;20015;-76
2023/04/06 02:17:13;;;;;;;;;;;23.50;27.60;;;;;;5092852;28;19920;-76
2023/04/06 02:19:38;;;;;;;;;;;23.50;27.60;;;;;;5092559;28;19920;-76
2023/04/06 02:22:04;;;;;;;;;;;23.50;27.70;;;;;;5093267;28;19985;-76
2023/04/06 02:24:29;;;;;;;;;;;23.50;27.70;;;;;;5092922;28;20435;-76
2023/04/06 02:26:55;;;;;;;;;;;23.40;27.60;;;;;;5093178;28;19932;-76
2023/04/06 02:29:21;;;;;;;;;;;23.40;27.70;;;;;;5093230;28;20282;-76
2023/04/06 02:31:46;;;;;;;;;;;23.40;27.80;;;;;;5092802;28;20341;-76
2023/04/06 02:34:17;;;;;;;;;;;23.40;27.70;;;;;;5092024;28;19920;-77
2023/04/06 02:36:44;;;;;;;;;;;23.40;27.80;;;;;;5091459;28;19989;-76
2023/04/06 02:39:10;;;;;;;;;;;23.30;27.80;;;;;;5092250;28;19920;-76
2023/04/06 02:41:36;;;;;;;;;;;23.40;27.80;;;;;;5094220;28;19931;-76
2023/04/06 02:44:01;;;;;;;;;;;23.30;27.80;;;;;;5092759;28;19926;-75
2023/04/06 02:46:27;;;;;;;;;;;23.40;27.80;;;;;;5093881;28;20287;-76
2023/04/06 02:48:52;;;;;;;;;;;23.40;27.80;;;;;;5092595;28;19981;-76
2023/04/06 02:51:18;;;;;;;;;;;23.40;27.70;;;;;;5092373;28;19927;-76
2023/04/06 02:53:43;;;;;;;;;;;23.40;27.70;;;;;;5092038;28;19942;-76
2023/04/06 02:56:09;;;;;;;;;;;23.40;27.70;;;;;;5091702;28;19924;-75
2023/04/06 02:58:34;;;;;;;;;;;23.40;27.80;;;;;;5093094;28;20264;-75
2023/04/06 03:01:00;;;;;;;;;;;23.30;27.80;;;;;;5091877;28;19920;-75
2023/04/06 03:03:26;;;;;;;;;;;23.20;27.80;;;;;;5092356;28;19946;-76
2023/04/06 03:05:51;;;;;;;;;;;23.20;27.80;;;;;;5093438;28;19945;-77
2023/04/06 03:08:16;;;;;;;;;;;23.20;27.80;;;;;;5092080;28;20025;-76
2023/04/06 03:10:42;;;;;;;;;;;23.20;27.80;;;;;;5092294;28;19926;-76
2023/04/06 03:13:07;;;;;;;;;;;23.30;27.80;;;;;;5092300;28;19931;-76
2023/04/06 03:15:33;;;;;;;;;;;23.30;27.80;;;;;;5091432;28;19924;-76
2023/04/06 03:17:58;;;;;;;;;;;23.30;27.80;;;;;;5091759;28;19920;-76
2023/04/06 03:20:24;;;;;;;;;;;23.30;28.30;;;;;;5091727;28;19920;-76
2023/04/06 03:22:50;;;;;;;;;;;23.30;27.80;;;;;;5091721;28;19920;-76
2023/04/06 03:25:15;;;;;;;;;;;23.30;27.70;;;;;;5092012;28;19931;-76
2023/04/06 03:27:41;;;;;;;;;;;23.30;27.70;;;;;;5091900;28;19920;-75
2023/04/06 03:30:06;;;;;;;;;;;23.30;27.80;;;;;;5091656;28;19974;-75
2023/04/06 03:32:32;;;;;;;;;;;23.30;27.80;;;;;;5092881;28;19920;-76
2023/04/06 03:34:57;;;;;;;;;;;23.30;27.80;;;;;;5090915;28;20375;-75
2023/04/06 03:37:23;;;;;;;;;;;23.30;27.80;;;;;;5091718;28;19924;-76
2023/04/06 03:39:48;;;;;;;;;;;23.30;27.80;;;;;;5092540;28;20356;-75
2023/04/06 03:42:14;;;;;;;;;;;23.20;27.80;;;;;;5091701;28;19970;-76
2023/04/06 03:44:39;;;;;;;;;;;23.20;27.90;;;;;;5090742;28;20294;-75
2023/04/06 03:47:05;;;;;;;;;;;23.20;27.80;;;;;;5091615;28;20010;-75
2023/04/06 03:49:30;;;;;;;;;;;23.10;27.80;;;;;;5091345;28;20286;-76
2023/04/06 03:51:56;;;;;;;;;;;23.20;27.90;;;;;;5091557;28;19920;-76
2023/04/06 03:54:21;;;;;;;;;;;23.10;27.90;;;;;;5090935;28;20379;-75
2023/04/06 03:56:47;;;;;;;;;;;23.10;27.90;;;;;;5090773;28;19959;-76
2023/04/06 03:59:12;;;;;;;;;;;23.10;27.90;;;;;;5091232;28;20379;-76
2023/04/06 04:01:39;;;;;;;;;;;23.10;27.80;;;;;;5090963;28;19920;-77
2023/04/06 04:04:04;;;;;;;;;;;23.10;27.90;;;;;;5091495;28;19951;-75
2023/04/06 04:06:30;;;;;;;;;;;23.10;27.80;;;;;;5091618;28;19920;-76
2023/04/06 04:08:56;;;;;;;;;;;23.10;27.80;;;;;;5091410;28;20015;-76
2023/04/06 04:11:21;;;;;;;;;;;23.10;27.80;;;;;;5091823;28;19999;-76
2023/04/06 04:13:47;;;;;;;;;;;23.20;27.80;;;;;;5091474;28;20345;-76
2023/04/06 04:16:12;;;;;;;;;;;23.20;27.80;;;;;;5090862;28;20358;-76
2023/04/06 04:18:38;;;;;;;;;;;23.30;27.70;;;;;;5091209;28;19930;-76
2023/04/06 04:21:03;;;;;;;;;;;23.30;27.60;;;;;;5091892;28;20377;-76
2023/04/06 04:23:29;;;;;;;;;;;23.40;27.60;;;;;;5091302;28;19967;-76
2023/04/06 04:25:54;;;;;;;;;;;23.40;27.60;;;;;;5091210;28;19928;-76
2023/04/06 04:28:20;;;;;;;;;;;23.40;27.50;;;;;;5091075;28;20037;-76
2023/04/06 04:30:45;;;;;;;;;;;23.40;27.50;;;;;;5090957;28;19924;-76
2023/04/06 04:33:11;;;;;;;;;;;23.50;27.50;;;;;;5091011;28;19927;-76
2023/04/06 04:35:36;;;;;;;;;;;23.50;27.50;;;;;;5089821;28;19931;-75
2023/04/06 04:38:02;;;;;;;;;;;23.40;27.40;;;;;;5090179;28;19927;-75
2023/04/06 04:40:27;;;;;;;;;;;23.40;27.50;;;;;;5090327;28;19924;-75
2023/04/06 04:42:53;;;;;;;;;;;23.30;27.30;;;;;;5090950;28;20007;-75
2023/04/06 04:45:18;;;;;;;;;;;23.40;27.40;;;;;;5090640;28;19926;-76
2023/04/06 04:47:44;;;;;;;;;;;23.30;27.60;;;;;;5091008;28;19920;-76
2023/04/06 04:50:10;;;;;;;;;;;23.30;27.50;;;;;;5091065;28;19920;-75
2023/04/06 04:52:37;;;;;;;;;;;23.30;27.50;;;;;;5090589;28;19928;-75
2023/04/06 04:55:02;;;;;;;;;;;23.20;27.50;;;;;;5090195;28;19954;-75
2023/04/06 04:57:28;;;;;;;;;;;23.20;27.50;;;;;;5092004;28;19967;-75
2023/04/06 04:59:53;;;;;;;;;;;23.20;27.60;;;;;;5095292;28;20398;-76
2023/04/06 05:02:19;;;;;;;;;;;23.20;27.50;;;;;;5094482;28;20018;-76
2023/04/06 05:04:45;;;;;;;;;;;23.10;27.60;;;;;;5094636;28;19924;-75
2023/04/06 05:07:10;;;;;;;;;;;23.10;27.60;;;;;;5095153;28;19920;-76
2023/04/06 05:09:36;;;;;;;;;;;23.10;27.50;;;;;;5094706;28;20390;-76
2023/04/06 05:12:01;;;;;;;;;;;23.10;27.50;;;;;;5095768;28;19955;-76
2023/04/06 05:14:28;;;;;;;;;;;23.10;27.60;;;;;;5095350;28;19920;-76
2023/04/06 05:16:53;;;;;;;;;;;23.10;27.50;;;;;;5093017;28;20019;-75
2023/04/06 05:19:19;;;;;;;;;;;23.10;27.60;;;;;;5094930;28;19962;-76
2023/04/06 05:21:45;;;;;;;;;;;23.10;27.60;;;;;;5093827;28;19928;-76
2023/04/06 05:24:10;;;;;;;;;;;23.00;27.50;;;;;;5094528;28;19920;-76
2023/04/06 05:26:36;;;;;;;;;;;23.10;27.50;;;;;;5094265;28;20013;-76
2023/04/06 05:29:01;;;;;;;;;;;23.10;27.50;;;;;;5094736;28;19920;-76
2023/04/06 05:31:27;;;;;;;;;;;23.10;27.50;;;;;;5095223;28;19974;-76
2023/04/06 05:33:52;;;;;;;;;;;23.10;27.50;;;;;;5093899;28;19920;-76
2023/04/06 05:36:18;;;;;;;;;;;23.10;27.60;;;;;;5093426;28;19931;-76
2023/04/06 05:38:43;;;;;;;;;;;23.10;27.50;;;;;;5093002;28;19967;-76
2023/04/06 05:41:09;;;;;;;;;;;23.10;27.50;;;;;;5092872;28;19926;-71
2023/04/06 05:43:34;;;;;;;;;;;23.20;27.60;;;;;;5092215;28;20284;-71
2023/04/06 05:46:00;;;;;;;;;;;22.90;26.90;;;;;;5092142;28;19920;-72
2023/04/06 05:48:25;;;;;;;;;;;22.60;27.20;;;;;;5093140;28;19924;-74
2023/04/06 05:50:51;;;;;;;;;;;22.40;26.80;;;;;;5092819;28;19959;-69
2023/04/06 05:53:17;;;;;;;;;;;22.30;27.20;;;;;;5092981;28;20401;-71
2023/04/06 05:55:42;;;;;;;;;;;22.20;26.60;;;;;;5091735;28;19931;-76
2023/04/06 05:58:08;;;;;;;;;;;22.30;27.20;;;;;;5091686;28;19920;-69
2023/04/06 06:00:34;;;;;;;;;;;22.70;27.30;;;;;;5090647;28;19928;-72
2023/04/06 06:02:59;;;;;;;;;;;23.10;27.10;;;;;;5090123;28;19924;-74
2023/04/06 06:05:25;;;;;;;;;;;23.40;26.70;;;;;;5090758;28;19920;-72
2023/04/06 06:07:51;;;;;;;;;;;23.50;26.00;;;;;;5084833;28;19980;-73
2023/04/06 06:10:16;;;;;;;;;;;23.50;26.20;;;;;;5084085;28;20374;-73
2023/04/06 06:12:42;;;;;;;;;;;23.70;26.40;;;;;;5084519;28;19973;-75
2023/04/06 06:15:08;;;;;;;;;;;23.90;26.60;;;;;;5082665;28;19920;-72
2023/04/06 06:17:33;;;;;;;;;;;24.10;26.40;;;;;;5084183;28;20346;-70
2023/04/06 06:19:59;;;;;;;;;;;24.50;26.40;;;;;;5086153;28;19942;-78
2023/04/06 06:22:24;;;;;;;;;;;24.50;26.40;;;;;;5106977;27;20012;-74
2023/04/06 06:24:50;;;;;;;;;;;24.50;26.20;;;;;;5067831;28;19946;-75
2023/04/06 06:27:15;;;;;;;;;;;24.60;26.50;;;;;;5072694;28;19928;-77
2023/04/06 06:29:41;;;;;;;;;;;24.70;26.50;;;;;;5067882;28;20113;-76
2023/04/06 06:32:08;;;;;;;;;;;24.70;26.60;;;;;;5081371;27;20131;-72
2023/04/06 06:34:34;;;;;;;;;;;24.50;26.80;;;;;;5073050;28;19935;-75
2023/04/06 06:37:00;;;;;;;;;;;24.50;27.10;;;;;;5068657;28;19934;-73
2023/04/06 06:39:26;;;;;;;;;;;24.30;27.10;;;;;;5072565;28;19924;-72
2023/04/06 06:41:51;;;;;;;;;;;24.20;27.50;;;;;;5068314;28;20015;-75
2023/04/06 06:44:17;;;;;;;;;;;24.10;27.30;;;;;;5067227;28;20224;-73
2023/04/06 06:46:42;;;;;;;;;;;23.90;27.50;;;;;;5064233;28;19925;-71
2023/04/06 06:49:08;;;;;;;;;;;23.70;27.50;;;;;;5067782;28;19921;-69
2023/04/06 06:51:34;;;;;;;;;;;23.60;27.70;;;;;;5071920;28;19924;-68
2023/04/06 06:53:59;;;;;;;;;;;23.60;27.70;;;;;;5071032;28;20392;-74
2023/04/06 06:56:26;;;;;;;;;;;23.50;27.80;;;;;;5067688;28;20289;-72
2023/04/06 06:58:52;;;;;;;;;;;23.50;28.00;;;;;;5070207;28;19986;-73
2023/04/06 07:01:17;;;;;;;;;;;23.40;28.10;;;;;;5077575;28;20377;-74
2023/04/06 07:03:43;;;;;;;;;;;23.40;28.30;;;;;;5071320;28;19985;-76
2023/04/06 07:06:08;;;;;;;;;;;23.30;28.40;;;;;;5102613;27;19924;-72
2023/04/06 07:08:34;;;;;;;;;;;23.30;29.10;;;;;;5073585;28;19969;-73
2023/04/06 07:10:59;;;;;;;;;;;23.30;28.60;;;;;;5073360;28;19924;-80
2023/04/06 07:13:26;;;;;;;;;;;23.30;28.70;;;;;;5069707;28;20312;-79
2023/04/06 07:15:52;;;;;;;;;;;23.40;29.10;;;;;;5069557;28;20452;-71
2023/04/06 07:18:18;;;;;;;;;;;23.50;29.20;;;;;;5067283;28;19928;-81
2023/04/06 07:20:43;;;;;;;;;;;23.50;29.20;;;;;;5071350;28;19920;-79
2023/04/06 07:23:12;;;;;;;;;;;23.70;29.20;;;;;;5071108;28;20200;-72
2023/04/06 07:25:37;;;;;;;;;;;23.90;29.10;;;;;;5068326;28;19927;-73
2023/04/06 07:28:03;;;;;;;;;;;24.00;29.00;;;;;;5071481;28;19921;-71
2023/04/06 07:30:29;;;;;;;;;;;24.00;28.90;;;;;;5070131;28;20005;-73
2023/04/06 07:32:56;;;;;;;;;;;24.00;28.90;;;;;;5070168;28;19935;-74
2023/04/06 07:35:22;;;;;;;;;;;23.90;28.90;;;;;;5071178;28;20656;-70
2023/04/06 07:37:47;;;;;;;;;;;23.80;28.90;;;;;;5071956;28;19924;-70
2023/04/06 07:40:13;;;;;;;;;;;23.80;29.10;;;;;;5103396;27;19973;-71
2023/04/06 07:42:39;;;;;;;;;;;23.60;29.20;;;;;;5104379;27;19924;-73
2023/04/06 07:45:05;;;;;;;;;;;23.40;29.40;;;;;;5068160;28;19928;-76
2023/04/06 07:47:30;;;;;;;;;;;23.30;29.50;;;;;;5067979;28;19970;-74
2023/04/06 07:49:56;;;;;;;;;;;23.10;29.70;;;;;;5070826;28;19920;-68
2023/04/06 07:52:21;;;;;;;;;;;22.90;30.00;;;;;;5071190;28;20351;-70
2023/04/06 07:54:49;;;;;;;;;;;22.80;30.10;;;;;;5104456;27;20015;-70
2023/04/06 07:57:14;;;;;;;;;;;22.60;30.30;;;;;;5077906;28;19928;-69
2023/04/06 07:59:40;;;;;;;;;;;22.50;30.30;;;;;;5075093;28;19926;-69
2023/04/06 08:02:06;;;;;;;;;;;22.50;30.50;;;;;;5073647;28;20352;-73
2023/04/06 08:04:31;;;;;;;;;;;22.40;30.90;;;;;;5070213;28;19928;-72
2023/04/06 08:06:57;;;;;;;;;;;22.40;30.80;;;;;;5070302;28;20006;-76
2023/04/06 08:09:22;;;;;;;;;;;22.30;30.80;;;;;;5069422;28;20371;-75
2023/04/06 08:11:48;;;;;;;;;;;22.20;31.00;;;;;;5070742;28;20899;-76
2023/04/06 08:14:15;;;;;;;;;;;22.10;31.30;;;;;;5104376;27;20036;-82
2023/04/06 08:16:40;;;;;;;;;;;22.10;31.60;;;;;;5070477;28;19934;-72
2023/04/06 08:19:09;;;;;;;;;;;22.00;33.00;;;;;;5070843;28;19924;-73
2023/04/06 08:21:35;;;;;;;;;;;22.00;32.10;;;;;;5069574;28;19925;-70
2023/04/06 08:24:01;;;;;;;;;;;22.10;31.70;;;;;;5072072;28;19977;-71
2023/04/06 08:26:27;;;;;;;;;;;22.00;31.40;;;;;;5101971;27;19924;-75
2023/04/06 08:28:52;;;;;;;;;;;22.00;31.50;;;;;;5070540;28;19921;-69
2023/04/06 08:31:18;;;;;;;;;;;22.00;31.50;;;;;;5069329;28;20362;-71
2023/04/06 08:33:43;;;;;;;;;;;22.00;31.80;;;;;;5071384;28;19974;-77
2023/04/06 08:38:49;;;;;;;;;;;22.40;32.00;;;;;;5068349;28;19928;-67
2023/04/06 08:41:16;;;;;;;;;;;22.40;31.20;;;;;;5068060;28;19974;-67
2023/04/06 08:43:46;;;;;;;;;;;22.50;31.30;;;;;;5067259;28;20315;-68
2023/04/06 08:46:12;;;;;;;;;;;22.40;31.20;;;;;;5070732;28;20302;-72
2023/04/06 08:48:39;;;;;;;;;;;22.50;31.30;;;;;;5068956;28;19924;-71
2023/04/06 08:51:05;;;;;;;;;;;22.40;31.40;;;;;;5067644;28;19924;-72
2023/04/06 08:53:30;;;;;;;;;;;22.40;31.40;;;;;;5066320;28;19946;-72
2023/04/06 08:55:57;;;;;;;;;;;22.50;31.30;;;;;;5072339;28;19999;-72
2023/04/06 08:58:23;;;;;;;;;;;22.50;31.20;;;;;;5072129;28;20582;-72
2023/04/06 09:00:49;;;;;;;;;;;22.60;31.00;;;;;;5074201;28;20448;-74
2023/04/06 09:03:15;;;;;;;;;;;22.60;30.80;;;;;;5072326;28;20045;-74
2023/04/06 09:05:41;;;;;;;;;;;22.70;30.70;;;;;;5071136;28;19940;-73
2023/04/06 09:08:06;;;;;;;;;;;22.70;30.70;;;;;;5068361;28;19921;-74
2023/04/06 09:10:35;;;;;;;;;;;22.80;30.50;;;;;;5069514;28;19925;-74
2023/04/06 09:13:05;;;;;;;;;;;22.80;30.40;;;;;;5072926;28;19936;-74
2023/04/06 09:15:30;;;;;;;;;;;22.80;30.30;;;;;;5071183;28;19924;-74
2023/04/06 09:17:56;;;;;;;;;;;22.90;30.60;;;;;;5066520;28;20743;-74
2023/04/06 09:20:23;;;;;;;;;;;22.80;30.20;;;;;;5066680;28;19954;-74
2023/04/06 09:22:49;;;;;;;;;;;22.80;30.20;;;;;;5073782;28;19974;-74
2023/04/06 09:25:19;;;;;;;;;;;22.70;30.10;;;;;;5069132;28;20671;-74
2023/04/06 09:27:44;;;;;;;;;;;22.80;30.20;;;;;;5087642;28;19927;-74
2023/04/06 09:30:13;;;;;;;;;;;22.80;30.20;;;;;;5067238;28;20292;-74
2023/04/06 09:32:47;;;;;;;;;;;22.70;30.10;;;;;;5065359;28;19950;-74
2023/04/06 09:35:13;;;;;;;;;;;22.60;30.20;;;;;;5068038;28;19971;-74
2023/04/06 09:37:38;;;;;;;;;;;22.60;30.20;;;;;;5065930;28;19929;-74
2023/04/06 09:40:05;;;;;;;;;;;22.60;30.20;;;;;;5069429;28;19975;-73
2023/04/06 09:42:31;;;;;;;;;;;22.60;30.20;;;;;;5069740;28;19924;-74
2023/04/06 09:44:57;;;;;;;;;;;22.50;30.10;;;;;;5066661;28;19961;-72
2023/04/06 09:47:23;;;;;;;;;;;22.40;30.10;;;;;;5069823;28;19974;-73
2023/04/06 09:49:50;;;;;;;;;;;22.40;30.20;;;;;;5057226;28;20048;-74
2023/04/06 09:52:16;;;;;;;;;;;22.30;30.20;;;;;;5065720;28;19928;-73
2023/04/06 09:54:42;;;;;;;;;;;22.20;30.40;;;;;;5055495;28;19928;-73
2023/04/06 09:59:55;;;;;;;;;;;22.10;30.90;;;;;;5090553;28;19946;-79
2023/04/06 10:02:29;;;;;;;;;;;22.10;31.50;;;;;;5074568;28;19977;-79
2023/04/06 10:04:58;;;;;;;;;;;22.10;31.20;;;;;;5070458;28;19928;-71
2023/04/06 10:07:25;;;;;;;;;;;22.10;32.00;;;;;;5091874;28;20010;-69
2023/04/06 10:09:53;;;;;;;;;;;22.00;32.30;;;;;;5069954;28;20517;-68
2023/04/06 10:12:19;;;;;;;;;;;22.20;32.50;;;;;;5069499;28;19927;-75
2023/04/06 10:14:49;;;;;;;;;;;22.40;31.70;;;;;;5072515;28;19931;-72
2023/04/06 10:17:14;;;;;;;;;;;22.40;31.40;;;;;;5075767;28;19952;-75
2023/04/06 10:19:51;;;;;;;;;;;22.30;31.50;;;;;;5077652;28;19978;-76
2023/04/06 10:22:20;;;;;;;;;;;22.30;32.10;;;;;;5090342;28;20015;-79
2023/04/06 10:24:46;;;;;;;;;;;22.40;31.40;;;;;;5088962;28;19920;-75
2023/04/06 10:27:11;;;;;;;;;;;22.30;31.20;;;;;;5068247;28;19924;-75
2023/04/06 10:29:45;;;;;;;;;;;22.40;31.20;;;;;;5072607;28;19932;-75
2023/04/06 10:32:10;;;;;;;;;;;22.40;31.10;;;;;;5086339;28;20372;-75
2023/04/06 10:34:36;;;;;;;;;;;22.30;30.90;;;;;;5071595;28;19925;-75
2023/04/06 10:37:10;;;;;;;;;;;22.30;30.70;;;;;;5075489;28;19942;-76
2023/04/06 10:39:45;;;;;;;;;;;22.30;30.30;;;;;;5068096;28;20663;-73
2023/04/06 10:42:10;;;;;;;;;;;22.30;30.70;;;;;;5074665;28;19927;-71
2023/04/06 10:44:42;;;;;;;;;;;22.30;30.80;;;;;;5085120;28;19924;-74
2023/04/06 10:47:15;;;;;;;;;;;22.30;31.10;;;;;;5076051;28;20473;-68
2023/04/06 10:49:40;;;;;;;;;;;22.40;31.20;;;;;;5079351;28;19927;-73
2023/04/06 10:52:06;;;;;;;;;;;22.50;31.40;;;;;;5065704;28;20132;-71
2023/04/06 10:54:32;;;;;;;;;;;22.60;31.60;;;;;;5086620;28;19935;-74
2023/04/06 10:56:58;;;;;;;;;;;22.70;31.50;;;;;;5068581;28;19920;-70
2023/04/06 10:59:25;;;;;;;;;;;22.80;31.40;;;;;;5087606;28;20107;-69
2023/04/06 11:01:50;;;;;;;;;;;22.90;31.50;;;;;;5072257;28;20007;-67
2023/04/06 11:04:17;;;;;;;;;;;22.90;31.50;;;;;;5068764;28;20031;-68
2023/04/06 11:06:46;;;;;;;;;;;23.10;31.60;;;;;;5075076;28;19966;-72
2023/04/06 11:09:11;;;;;;;;;;;23.00;31.50;;;;;;5069806;28;19928;-68
2023/04/06 11:11:38;;;;;;;;;;;22.90;31.40;;;;;;5054336;28;20391;-69
2023/04/06 11:14:04;;;;;;;;;;;22.80;31.70;;;;;;5071556;28;19935;-69
2023/04/06 11:16:30;;;;;;;;;;;22.80;32.70;;;;;;5054399;28;20014;-72
2023/04/06 11:18:58;;;;;;;;;;;22.70;32.00;;;;;;5074796;28;19924;-69
2023/04/06 11:21:43;;;;;;;;;;;22.60;31.70;;;;;;5074856;28;19928;-69
2023/04/06 11:24:11;;;;;;;;;;;22.50;31.60;;;;;;5054273;28;19925;-72
2023/04/06 11:26:37;;;;;;;;;;;22.40;32.20;;;;;;5050275;28;19924;-71
2023/04/06 11:29:03;;;;;;;;;;;22.30;32.80;;;;;;5057132;28;19923;-71
2023/04/06 11:31:29;;;;;;;;;;;22.30;33.00;;;;;;5066397;28;19950;-68
2023/04/06 11:33:56;;;;;;;;;;;22.30;32.90;;;;;;5052883;28;19931;-68
2023/04/06 11:36:22;;;;;;;;;;;22.30;32.50;;;;;;5055227;28;20290;-70
2023/04/06 11:38:47;;;;;;;;;;;22.10;32.30;;;;;;5067267;28;19934;-69
2023/04/06 11:41:13;;;;;;;;;;;22.10;32.60;;;;;;5054811;28;19952;-68
2023/04/06 11:43:46;;;;;;;;;;;22.00;32.70;;;;;;5055173;28;20020;-75
2023/04/06 11:46:16;;;;;;;;;;;22.00;32.50;;;;;;5066855;28;19929;-69
2023/04/06 11:48:44;;;;;;;;;;;22.00;32.80;;;;;;5058948;28;19925;-70
2023/04/06 11:51:10;;;;;;;;;;;22.10;32.60;;;;;;5051201;28;20019;-68
2023/04/06 11:53:43;;;;;;;;;;;22.00;32.60;;;;;;5060635;28;19931;-70
2023/04/06 11:56:08;;;;;;;;;;;22.00;32.70;;;;;;5056087;28;19954;-70
2023/04/06 11:58:34;;;;;;;;;;;22.00;32.70;;;;;;5060572;28;20561;-70
2023/04/06 12:01:03;;;;;;;;;;;22.10;33.00;;;;;;5054635;28;19989;-70
2023/04/06 12:03:28;;;;;;;;;;;22.10;33.00;;;;;;5071622;28;19920;-69
2023/04/06 12:05:54;;;;;;;;;;;22.10;33.10;;;;;;5054755;28;20272;-70
2023/04/06 12:08:19;;;;;;;;;;;22.10;32.90;;;;;;5052856;28;19935;-69
2023/04/06 12:10:45;;;;;;;;;;;22.10;32.80;;;;;;5053679;28;19924;-73
2023/04/06 12:13:10;;;;;;;;;;;22.10;33.00;;;;;;5063489;28;19928;-68
2023/04/06 12:15:36;;;;;;;;;;;22.10;32.80;;;;;;5067991;28;19950;-71
2023/04/06 12:18:01;;;;;;;;;;;22.20;32.80;;;;;;5050405;28;19928;-71
2023/04/06 12:20:27;;;;;;;;;;;22.20;32.80;;;;;;5055808;28;20282;-68
2023/04/06 12:22:52;;;;;;;;;;;22.20;33.00;;;;;;5069098;28;19931;-70
2023/04/06 12:25:18;;;;;;;;;;;22.30;33.20;;;;;;5072731;28;19931;-71
2023/04/06 12:27:44;;;;;;;;;;;22.40;33.20;;;;;;5053962;28;20614;-71
2023/04/06 12:30:10;;;;;;;;;;;22.40;33.10;;;;;;5071432;28;20459;-72
2023/04/06 12:32:35;;;;;;;;;;;22.40;33.00;;;;;;5051048;28;19932;-73
2023/04/06 12:35:01;;;;;;;;;;;22.50;33.00;;;;;;5056500;28;19928;-70
2023/04/06 12:37:26;;;;;;;;;;;22.50;32.80;;;;;;5041431;28;19928;-73
2023/04/06 12:39:52;;;;;;;;;;;22.50;33.40;;;;;;5055047;28;20011;-71
2023/04/06 12:42:17;;;;;;;;;;;22.60;33.60;;;;;;5056991;28;19960;-71
2023/04/06 12:44:43;;;;;;;;;;;22.70;33.90;;;;;;5053649;28;19935;-69
2023/04/06 12:47:10;;;;;;;;;;;22.80;34.10;;;;;;5071187;28;19924;-68
2023/04/06 12:49:36;;;;;;;;;;;22.90;34.20;;;;;;5067618;28;19924;-70
2023/04/06 12:52:02;;;;;;;;;;;23.00;34.10;;;;;;5071047;28;19924;-69
2023/04/06 12:54:27;;;;;;;;;;;23.10;34.00;;;;;;5064505;28;20515;-69
2023/04/06 12:56:53;;;;;;;;;;;23.00;33.90;;;;;;5047667;28;21051;-71
2023/04/06 12:59:18;;;;;;;;;;;23.00;34.00;;;;;;5062749;28;19950;-72
2023/04/06 13:01:44;;;;;;;;;;;22.90;34.00;;;;;;5056678;28;19925;-74
2023/04/06 13:04:09;;;;;;;;;;;22.80;34.00;;;;;;5060203;28;19927;-71
2023/04/06 13:06:35;;;;;;;;;;;22.80;33.80;;;;;;5058354;28;19939;-73
2023/04/06 13:09:00;;;;;;;;;;;22.80;34.00;;;;;;5066648;28;20799;-70
2023/04/06 13:11:26;;;;;;;;;;;22.70;33.10;;;;;;5064597;28;19920;-71
2023/04/06 13:13:51;;;;;;;;;;;22.50;31.40;;;;;;5061661;28;19976;-70
2023/04/06 13:16:17;;;;;;;;;;;22.40;31.60;;;;;;5063129;28;20690;-70
2023/04/06 13:18:43;;;;;;;;;;;22.20;31.60;;;;;;5072371;28;20019;-73
2023/04/06 13:21:08;;;;;;;;;;;22.10;31.30;;;;;;5064320;28;20037;-73
2023/04/06 13:23:35;;;;;;;;;;;22.00;31.30;;;;;;5072724;28;20002;-66
2023/04/06 13:26:01;;;;;;;;;;;22.00;31.30;;;;;;5064283;28;19931;-67
2023/04/06 13:28:27;;;;;;;;;;;21.90;30.80;;;;;;5081888;28;19921;-67
2023/04/06 13:30:53;;;;;;;;;;;22.00;30.70;;;;;;5064212;28;19924;-67
2023/04/06 13:33:19;;;;;;;;;;;22.00;30.70;;;;;;5084971;28;20614;-67
2023/04/06 13:35:45;;;;;;;;;;;22.10;30.80;;;;;;5065878;28;19955;-67
2023/04/06 13:38:11;;;;;;;;;;;22.00;30.90;;;;;;5067840;28;20307;-67
2023/04/06 13:40:38;;;;;;;;;;;22.10;31.00;;;;;;5065604;28;19924;-67
2023/04/06 13:43:04;;;;;;;;;;;22.10;31.00;;;;;;5066103;28;19924;-67
2023/04/06 13:45:29;;;;;;;;;;;22.20;31.00;;;;;;5066192;28;19930;-67
2023/04/06 13:47:55;;;;;;;;;;;22.30;30.90;;;;;;5067391;28;20015;-67
2023/04/06 13:50:20;;;;;;;;;;;22.30;30.90;;;;;;5065527;28;19924;-67
2023/04/06 13:52:46;;;;;;;;;;;22.40;30.80;;;;;;5085178;28;19989;-67
2023/04/06 13:55:11;;;;;;;;;;;22.60;30.70;;;;;;5068402;28;19924;-66
2023/04/06 13:57:37;;;;;;;;;;;22.60;30.60;;;;;;5066514;28;20003;-75
2023/04/06 14:00:03;;;;;;;;;;;22.60;30.70;;;;;;5068576;28;19924;-73
2023/04/06 14:02:29;;;;;;;;;;;22.70;31.20;;;;;;5068685;28;20445;-76
2023/04/06 14:04:55;;;;;;;;;;;22.70;31.30;;;;;;5084359;28;19924;-74
2023/04/06 14:07:20;;;;;;;;;;;22.80;31.40;;;;;;5068754;28;19955;-74
2023/04/06 14:09:46;;;;;;;;;;;22.90;31.60;;;;;;5083872;28;20468;-76
2023/04/06 14:12:11;;;;;;;;;;;23.00;31.60;;;;;;5064259;28;20574;-75
2023/04/06 14:14:37;;;;;;;;;;;23.10;31.80;;;;;;5083494;28;19931;-75